Time;durP1;ratioP1;P1;durP2;ratioP2;P2;SDS_P1;SDS_P2;PMS_P1;PMS_P2;Temp;Humidity;BMP_temperature;BMP_pressure;BME280_temperature;BME280_humidity;BME280_pressure;Samples;Min_cycle;Max_cycle;Signal;HPM_P1;HPM_P2
2022/10/31 00:01:48;;;;;;;;;;;;;;;21.81;65.59;99830.84;7314976;19;128812;-33
2022/10/31 00:04:14;;;;;;;;;;;;;;;21.81;65.53;99824.75;7314251;19;130171;-33
2022/10/31 00:06:39;;;;;;;;;;;;;;;21.80;66.00;99833.56;7314632;19;129467;-29
2022/10/31 00:09:04;;;;;;;;;;;;;;;21.78;66.35;99831.06;7311841;19;129720;-34
2022/10/31 00:11:30;;;;;;;;;;;;;;;21.79;65.83;99827.50;7315421;19;129972;-38
2022/10/31 00:13:56;;;;;;;;;;;;;;;21.81;65.45;99830.84;7314792;19;129010;-30
2022/10/31 00:16:23;;;;;;;;;;;;;;;21.77;66.12;99825.97;7313138;19;129181;-32
2022/10/31 00:18:49;;;;;;;;;;;;;;;21.78;66.02;99830.28;7312228;19;129234;-36
2022/10/31 00:21:15;;;;;;;;;;;;;;;21.81;65.59;99830.84;7314165;19;129622;-34
2022/10/31 00:23:40;;;;;;;;;;;;;;;21.78;65.85;99825.03;7313843;19;129161;-39
2022/10/31 00:26:06;;;;;;;;;;;;;;;21.68;66.02;99819.72;7313249;19;129256;-29
2022/10/31 00:28:32;;;;;;;;;;;;;;;21.80;65.61;99833.56;7313050;19;129235;-33
2022/10/31 00:31:01;;;;;;;;;;;;;;;21.73;66.08;99821.97;7310365;19;129671;-36
2022/10/31 00:33:26;;;;;;;;;;;;;;;21.84;65.64;99838.41;7313996;19;129217;-30
2022/10/31 00:35:51;;;;;;;;;;;;;;;21.83;65.54;99841.97;7313026;19;129242;-33
2022/10/31 00:38:17;;;;;;;;;;;;;;;21.81;65.81;99849.16;7311825;19;129313;-36
2022/10/31 00:40:42;;;;;;;;;;;;;;;21.80;65.65;99844.03;7313687;19;129237;-31
2022/10/31 00:43:07;;;;;;;;;;;;;;;21.80;65.99;99850.09;7314539;19;128810;-36
2022/10/31 00:45:32;;;;;;;;;;;;;;;21.83;66.15;99838.53;7312419;19;132433;-31
2022/10/31 00:47:58;;;;;;;;;;;;;;;21.79;65.53;99837.16;7313062;19;130756;-33
2022/10/31 00:50:23;;;;;;;;;;;;;;;21.78;65.45;99838.94;7313319;19;128888;-36
2022/10/31 00:52:48;;;;;;;;;;;;;;;21.80;65.89;99844.03;7313407;19;129792;-32
2022/10/31 00:55:13;;;;;;;;;;;;;;;21.79;65.83;99843.22;7313382;19;130128;-34
2022/10/31 00:57:38;;;;;;;;;;;;;;;21.78;65.76;99840.75;7312855;19;129162;-31
2022/10/31 01:00:04;;;;;;;;;;;;;;;21.78;66.32;99838.94;7312751;19;128992;-33
2022/10/31 01:02:29;;;;;;;;;;;;;;;21.79;66.24;99840.59;7313075;19;129226;-37
2022/10/31 01:04:54;;;;;;;;;;;;;;;21.79;66.26;99843.22;7313009;19;129689;-34
2022/10/31 01:07:20;;;;;;;;;;;;;;;21.79;65.40;99845.84;7312588;19;129692;-36
2022/10/31 01:09:45;;;;;;;;;;;;;;;21.81;65.81;99840.47;7311525;19;129640;-33
2022/10/31 01:12:10;;;;;;;;;;;;;;;21.81;66.24;99851.78;7312465;19;129385;-37
2022/10/31 01:14:35;;;;;;;;;;;;;;;21.82;65.63;99850.78;7312938;19;129763;-33
2022/10/31 01:17:00;;;;;;;;;;;;;;;21.80;65.60;99852.72;7310231;19;129528;-33
2022/10/31 01:19:26;;;;;;;;;;;;;;;21.81;65.58;99856.16;7311917;19;128990;-36
2022/10/31 01:21:53;;;;;;;;;;;;;;;21.79;65.59;99852.84;7313148;19;129144;-37
2022/10/31 01:24:18;;;;;;;;;;;;;;;21.80;65.38;99844.84;7313753;19;129027;-34
2022/10/31 01:26:44;;;;;;;;;;;;;;;21.80;65.65;99850.09;7312379;19;129341;-32
2022/10/31 01:29:09;;;;;;;;;;;;;;;21.81;65.77;99854.38;7313072;19;129406;-33
2022/10/31 01:31:35;;;;;;;;;;;;;;;21.69;65.48;99837.09;7312775;19;129259;-34
2022/10/31 01:34:01;;;;;;;;;;;;;;;21.76;65.51;99846.09;7313914;19;130373;-33
2022/10/31 01:36:28;;;;;;;;;;;;;;;21.77;65.56;99850.38;7310900;19;129451;-36
2022/10/31 01:38:55;;;;;;;;;;;;;;;21.79;65.92;99848.44;7309474;19;128931;-29
2022/10/31 01:41:22;;;;;;;;;;;;;;;21.76;66.02;99848.72;7311222;19;129275;-33
2022/10/31 01:43:52;;;;;;;;;;;;;;;21.81;65.60;99849.16;7313279;19;129489;-31
2022/10/31 01:46:20;;;;;;;;;;;;;;;21.82;65.80;99853.41;7311696;19;130083;-33
2022/10/31 01:48:46;;;;;;;;;;;;;;;21.84;66.11;99851.50;7309855;19;130568;-33
2022/10/31 01:51:13;;;;;;;;;;;;;;;21.80;66.15;99852.72;7311698;19;130413;-35
2022/10/31 01:53:39;;;;;;;;;;;;;;;21.81;65.67;99851.78;7312245;19;129326;-38
2022/10/31 01:56:04;;;;;;;;;;;;;;;21.82;65.29;99853.41;7311521;19;129637;-28
2022/10/31 01:58:30;;;;;;;;;;;;;;;21.80;65.84;99852.72;7310268;19;130060;-35
2022/10/31 02:00:58;;;;;;;;;;;;;;;21.82;65.89;99853.41;7312062;19;129238;-31
2022/10/31 02:03:25;;;;;;;;;;;;;;;21.81;66.06;99846.53;7312455;19;129702;-40
2022/10/31 02:05:52;;;;;;;;;;;;;;;21.83;65.67;99855.06;7311783;19;129576;-33
2022/10/31 02:08:28;;;;;;;;;;;;;;;21.80;65.87;99852.72;7310483;19;129181;-32
2022/10/31 02:10:54;;;;;;;;;;;;;;;21.78;66.23;99846.78;7311134;19;129400;-33
2022/10/31 02:13:20;;;;;;;;;;;;;;;21.77;65.95;99853.00;7312099;19;129805;-39
2022/10/31 02:15:48;;;;;;;;;;;;;;;21.82;65.84;99853.41;7311212;19;130010;-35
2022/10/31 02:18:14;;;;;;;;;;;;;;;21.80;66.23;99857.94;7309304;19;129735;-33
2022/10/31 02:20:47;;;;;;;;;;;;;;;21.80;65.61;99854.50;7311093;19;129763;-31
2022/10/31 02:23:13;;;;;;;;;;;;;;;21.78;66.15;99856.44;7311229;19;129552;-34
2022/10/31 02:25:41;;;;;;;;;;;;;;;21.80;66.08;99860.56;7311572;19;129151;-38
2022/10/31 02:28:24;;;;;;;;;;;;;;;21.81;65.46;99857.00;7310011;19;129060;-40
2022/10/31 02:31:15;;;;;;;;;;;;;;;21.81;65.43;99857.00;7309893;19;128922;-31
2022/10/31 02:33:44;;;;;;;;;;;;;;;21.80;65.64;99864.97;7308805;19;129183;-38
2022/10/31 02:36:09;;;;;;;;;;;;;;;21.79;66.00;99868.56;7311357;19;129577;-32
2022/10/31 02:38:37;;;;;;;;;;;;;;;21.79;65.69;99861.53;7308424;19;129340;-38
2022/10/31 02:41:15;;;;;;;;;;;;;;;21.80;66.22;99867.56;7311336;19;129100;-33
2022/10/31 02:43:59;;;;;;;;;;;;;;;21.83;65.45;99864.72;7311481;19;129498;-37
2022/10/31 02:46:28;;;;;;;;;;;;;;;21.79;65.59;99864.16;7310075;19;129549;-34
2022/10/31 02:48:56;;;;;;;;;;;;;;;21.82;65.40;99869.13;7306712;19;130108;-33
2022/10/31 02:51:22;;;;;;;;;;;;;;;21.82;66.10;99869.13;7309707;19;129072;-34
2022/10/31 02:53:47;;;;;;;;;;;;;;;21.82;65.71;99871.72;7313886;19;130352;-35
2022/10/31 02:56:14;;;;;;;;;;;;;;;21.83;65.82;99881.22;7317010;19;129816;-33
2022/10/31 02:58:44;;;;;;;;;;;;;;;21.81;65.84;99870.09;7314647;19;129250;-36
2022/10/31 03:01:22;;;;;;;;;;;;;;;21.83;65.57;99876.00;7316089;19;129784;-34
2022/10/31 03:03:47;;;;;;;;;;;;;;;21.87;65.91;99881.78;7316820;19;129626;-32
2022/10/31 03:06:12;;;;;;;;;;;;;;;21.79;65.84;99874.63;7316672;19;129674;-33
2022/10/31 03:08:46;;;;;;;;;;;;;;;21.80;65.76;99880.66;7312882;19;129196;-37
2022/10/31 03:11:11;;;;;;;;;;;;;;;21.83;66.11;99881.22;7315925;19;130878;-36
2022/10/31 03:13:51;;;;;;;;;;;;;;;21.81;65.43;99887.56;7316050;19;130285;-30
2022/10/31 03:16:19;;;;;;;;;;;;;;;21.81;65.29;99880.56;7314517;19;129228;-32
2022/10/31 03:18:47;;;;;;;;;;;;;;;21.80;65.80;99876.28;7314839;19;128822;-33
2022/10/31 03:21:35;;;;;;;;;;;;;;;21.78;65.51;99883.41;7316755;19;129022;-30
2022/10/31 03:24:02;;;;;;;;;;;;;;;21.79;66.40;99890.31;7316150;19;131825;-32
2022/10/31 03:26:27;;;;;;;;;;;;;;;21.77;65.69;99881.78;7316437;19;129576;-28
2022/10/31 03:28:54;;;;;;;;;;;;;;;21.77;65.61;99884.41;7313838;19;130851;-31
2022/10/31 03:31:23;;;;;;;;;;;;;;;21.78;65.56;99882.63;7316419;19;132144;-36
2022/10/31 03:33:50;;;;;;;;;;;;;;;21.79;66.32;99879.84;7315610;19;129930;-35
2022/10/31 03:36:16;;;;;;;;;;;;;;;21.76;66.20;99884.50;7314512;19;131385;-31
2022/10/31 03:38:43;;;;;;;;;;;;;;;21.82;65.89;99891.84;7312316;19;129242;-34
2022/10/31 03:41:11;;;;;;;;;;;;;;;21.81;65.72;99887.56;7316127;19;129771;-34
2022/10/31 03:43:39;;;;;;;;;;;;;;;21.79;65.58;99892.94;7316473;19;129349;-33
2022/10/31 03:46:04;;;;;;;;;;;;;;;21.82;65.59;99895.28;7314820;19;129197;-30
2022/10/31 03:48:29;;;;;;;;;;;;;;;21.81;65.47;99896.25;7313680;19;130297;-33
2022/10/31 03:51:06;;;;;;;;;;;;;;;21.80;65.94;99899.81;7315663;19;130307;-39
2022/10/31 03:53:38;;;;;;;;;;;;;;;21.79;65.64;99900.81;7315787;19;130146;-33
2022/10/31 03:56:13;;;;;;;;;;;;;;;21.78;66.44;99904.34;7314500;19;129688;-33
2022/10/31 03:58:46;;;;;;;;;;;;;;;21.80;65.61;99897.22;7312823;19;129254;-33
2022/10/31 04:01:15;;;;;;;;;;;;;;;21.82;65.98;99895.28;7314243;19;128856;-35
2022/10/31 04:03:41;;;;;;;;;;;;;;;21.84;65.77;99905.63;7314257;19;130133;-38
2022/10/31 04:06:08;;;;;;;;;;;;;;;21.80;65.84;99899.81;7314523;19;129192;-29
2022/10/31 04:08:37;;;;;;;;;;;;;;;21.81;66.03;99900.66;7312266;19;129661;-38
2022/10/31 04:11:04;;;;;;;;;;;;;;;21.79;66.05;99911.25;7315880;19;129501;-30
2022/10/31 04:13:31;;;;;;;;;;;;;;;21.80;65.88;99912.06;7315787;19;129912;-35
2022/10/31 04:15:57;;;;;;;;;;;;;;;21.80;66.27;99906.84;7315594;19;129690;-30
2022/10/31 04:18:22;;;;;;;;;;;;;;;21.79;65.61;99906.03;7312164;19;129119;-34
2022/10/31 04:20:50;;;;;;;;;;;;;;;21.80;65.77;99902.44;7315009;19;129589;-36
2022/10/31 04:23:20;;;;;;;;;;;;;;;21.74;65.36;99892.47;7314709;19;129362;-36
2022/10/31 04:25:45;;;;;;;;;;;;;;;21.82;66.12;99908.38;7315350;19;129354;-33
2022/10/31 04:28:10;;;;;;;;;;;;;;;21.80;65.95;99897.22;7313684;19;129572;-33
2022/10/31 04:30:36;;;;;;;;;;;;;;;21.81;65.86;99898.03;7314399;19;129096;-38
2022/10/31 04:33:01;;;;;;;;;;;;;;;21.79;65.72;99900.81;7314090;19;130289;-35
2022/10/31 04:35:26;;;;;;;;;;;;;;;21.81;66.11;99906.72;7314928;19;129812;-34
2022/10/31 04:37:51;;;;;;;;;;;;;;;21.83;65.61;99902.16;7312369;19;129060;-42
2022/10/31 04:40:17;;;;;;;;;;;;;;;21.83;65.68;99906.59;7313597;19;129173;-30
2022/10/31 04:42:42;;;;;;;;;;;;;;;21.79;66.07;99906.03;7315375;19;129377;-31
2022/10/31 04:45:07;;;;;;;;;;;;;;;21.80;66.07;99906.84;7314778;19;129491;-30
2022/10/31 04:47:33;;;;;;;;;;;;;;;21.72;65.65;99890.94;7313658;19;129382;-41
2022/10/31 04:49:58;;;;;;;;;;;;;;;21.80;66.07;99912.91;7312724;19;129260;-28
2022/10/31 04:52:24;;;;;;;;;;;;;;;21.69;65.93;99896.44;7314085;19;129118;-32
2022/10/31 04:54:49;;;;;;;;;;;;;;;21.77;66.08;99913.19;7313530;19;129174;-32
2022/10/31 04:57:14;;;;;;;;;;;;;;;21.77;65.95;99915.81;7312817;19;129099;-31
2022/10/31 04:59:39;;;;;;;;;;;;;;;21.77;66.16;99913.19;7309735;19;131238;-34
2022/10/31 05:02:04;;;;;;;;;;;;;;;21.78;65.57;99917.44;7313137;19;129521;-35
2022/10/31 05:04:30;;;;;;;;;;;;;;;21.78;65.83;99909.59;7312821;19;131267;-34
2022/10/31 05:06:55;;;;;;;;;;;;;;;21.79;65.91;99908.66;7311888;19;129740;-37
2022/10/31 05:09:20;;;;;;;;;;;;;;;21.82;66.01;99915.41;7311077;19;129668;-30
2022/10/31 05:11:45;;;;;;;;;;;;;;;21.83;65.60;99912.63;7313639;19;129017;-33
2022/10/31 05:14:11;;;;;;;;;;;;;;;21.84;65.78;99922.16;7310616;19;130572;-33
2022/10/31 05:16:36;;;;;;;;;;;;;;;21.79;66.21;99921.72;7311488;19;129544;-29
2022/10/31 05:19:01;;;;;;;;;;;;;;;21.79;65.89;99916.50;7308705;19;129364;-33
2022/10/31 05:21:26;;;;;;;;;;;;;;;21.78;65.79;99920.06;7312629;19;129068;-36
2022/10/31 05:23:52;;;;;;;;;;;;;;;21.81;65.96;99919.81;7312334;19;129210;-39
2022/10/31 05:26:17;;;;;;;;;;;;;;;21.79;65.48;99920.91;7311850;19;128913;-36
2022/10/31 05:28:42;;;;;;;;;;;;;;;21.79;66.07;99916.50;7306975;19;129595;-36
2022/10/31 05:31:07;;;;;;;;;;;;;;;21.71;65.58;99903.22;7312456;19;129551;-33
2022/10/31 05:33:32;;;;;;;;;;;;;;;21.69;65.74;99899.91;7311604;19;129550;-32
2022/10/31 05:35:58;;;;;;;;;;;;;;;21.78;65.46;99925.28;7311524;19;128925;-36
2022/10/31 05:38:23;;;;;;;;;;;;;;;21.77;65.98;99923.66;7308860;19;129504;-33
2022/10/31 05:40:48;;;;;;;;;;;;;;;21.81;65.81;99919.81;7311677;19;129219;-35
2022/10/31 05:43:13;;;;;;;;;;;;;;;21.84;65.38;99923.94;7311040;19;129178;-30
2022/10/31 05:45:39;;;;;;;;;;;;;;;21.83;66.00;99923.09;7311577;19;130815;-31
2022/10/31 05:48:04;;;;;;;;;;;;;;;21.80;66.02;99930.41;7311467;19;129517;-33
2022/10/31 05:50:30;;;;;;;;;;;;;;;21.78;65.93;99929.72;7310797;19;129160;-33
2022/10/31 05:52:57;;;;;;;;;;;;;;;21.76;65.64;99924.63;7310443;19;129170;-32
2022/10/31 05:55:22;;;;;;;;;;;;;;;21.69;66.01;99910.38;7310766;19;129119;-34
2022/10/31 05:57:47;;;;;;;;;;;;;;;21.80;65.89;99933.84;7311293;19;130012;-29
2022/10/31 06:00:12;;;;;;;;;;;;;;;21.80;65.69;99935.63;7310362;19;130204;-37
2022/10/31 06:02:38;;;;;;;;;;;;;;;21.81;66.04;99935.53;7311068;19;129225;-33
2022/10/31 06:05:03;;;;;;;;;;;;;;;21.82;66.14;99937.16;7309483;19;129340;-33
2022/10/31 06:07:32;;;;;;;;;;;;;;;21.80;65.87;99933.00;7310211;19;131080;-29
2022/10/31 06:09:57;;;;;;;;;;;;;;;21.69;65.56;99928.69;7310951;19;129671;-33
2022/10/31 06:12:22;;;;;;;;;;;;;;;21.82;66.03;99945.03;7311114;19;129158;-31
2022/10/31 06:14:48;;;;;;;;;;;;;;;21.85;65.96;99943.91;7311293;19;129215;-31
2022/10/31 06:17:13;;;;;;;;;;;;;;;21.81;65.76;99940.75;7311784;19;129479;-30
2022/10/31 06:19:38;;;;;;;;;;;;;;;21.77;65.85;99948.97;7309578;19;129411;-31
2022/10/31 06:22:03;;;;;;;;;;;;;;;21.78;65.46;99945.44;7310766;19;130298;-28
2022/10/31 06:24:29;;;;;;;;;;;;;;;21.79;65.84;99947.91;7310701;19;129750;-27
2022/10/31 06:26:54;;;;;;;;;;;;;;;21.80;65.56;99953.94;7309812;19;129305;-31
2022/10/31 06:29:19;;;;;;;;;;;;;;;21.80;65.42;99954.78;7311402;19;129702;-33
2022/10/31 06:31:44;;;;;;;;;;;;;;;21.78;66.14;99956.69;7317451;19;129766;-31
2022/10/31 06:34:10;;;;;;;;;;;;;;;21.79;65.80;99963.59;7318403;19;129548;-40
2022/10/31 06:36:35;;;;;;;;;;;;;;;21.78;65.78;99961.13;7318106;19;130135;-32
2022/10/31 06:39:00;;;;;;;;;;;;;;;21.80;65.67;99970.50;7313863;19;129164;-37
2022/10/31 06:41:25;;;;;;;;;;;;;;;21.81;65.71;99972.16;7317757;19;129167;-34
2022/10/31 06:43:51;;;;;;;;;;;;;;;21.81;65.41;99976.56;7318022;19;129587;-31
2022/10/31 06:46:16;;;;;;;;;;;;;;;21.78;65.83;99966.38;7317107;19;129937;-37
2022/10/31 06:48:41;;;;;;;;;;;;;;;21.77;65.67;99976.00;7314058;19;129489;-33
2022/10/31 06:51:07;;;;;;;;;;;;;;;21.69;65.42;99962.72;7315978;19;130342;-34
2022/10/31 06:53:32;;;;;;;;;;;;;;;21.76;65.50;99982.19;7316690;19;129104;-36
2022/10/31 06:55:57;;;;;;;;;;;;;;;21.76;65.73;100000.53;7316047;19;129065;-29
2022/10/31 06:58:23;;;;;;;;;;;;;;;21.82;65.41;99986.06;7314717;19;129520;-34
2022/10/31 07:00:48;;;;;;;;;;;;;;;21.80;66.17;99988.81;7317314;19;129351;-37
2022/10/31 07:03:15;;;;;;;;;;;;;;;21.81;66.20;99987.03;7314708;19;129185;-29
2022/10/31 07:05:41;;;;;;;;;;;;;;;21.75;66.22;99990.97;7315296;19;129519;-36
2022/10/31 07:08:08;;;;;;;;;;;;;;;21.77;65.64;99994.31;7313167;19;129395;-33
2022/10/31 07:10:34;;;;;;;;;;;;;;;21.78;66.23;99988.09;7314250;19;129469;-36
2022/10/31 07:13:01;;;;;;;;;;;;;;;21.79;65.48;99992.41;7314104;19;129198;-30
2022/10/31 07:15:27;;;;;;;;;;;;;;;21.83;65.86;100001.63;7316117;19;129035;-30
2022/10/31 07:17:52;;;;;;;;;;;;;;;21.83;66.21;99995.59;7312293;19;130178;-31
2022/10/31 07:20:18;;;;;;;;;;;;;;;21.81;66.04;99997.50;7311549;19;129127;-36
2022/10/31 07:22:43;;;;;;;;;;;;;;;21.77;66.03;100001.31;7314932;19;129270;-34
2022/10/31 07:25:09;;;;;;;;;;;;;;;21.79;66.12;100000.25;7315418;19;129278;-32
2022/10/31 07:27:40;;;;;;;;;;;;;;;21.79;65.48;100002.88;7314684;19;129333;-32
2022/10/31 07:30:06;;;;;;;;;;;;;;;21.84;65.30;100003.31;7315341;19;130075;-39
2022/10/31 07:32:42;;;;;;;;;;;;;;;21.85;65.79;100004.13;7316391;19;129798;-34
2022/10/31 07:35:08;;;;;;;;;;;;;;;21.82;65.47;100005.22;7314384;19;129067;-28
2022/10/31 07:37:33;;;;;;;;;;;;;;;21.84;66.01;100008.53;7314238;19;130346;-33
2022/10/31 07:39:58;;;;;;;;;;;;;;;21.86;65.86;100011.03;7314423;19;129607;-33
2022/10/31 07:42:23;;;;;;;;;;;;;;;21.84;65.24;100011.16;7315942;19;130628;-31
2022/10/31 07:44:49;;;;;;;;;;;;;;;21.78;65.43;99993.34;7311147;19;130098;-33
2022/10/31 07:47:14;;;;;;;;;;;;;;;21.85;65.92;100009.34;7314474;19;129444;-37
2022/10/31 07:49:39;;;;;;;;;;;;;;;21.83;65.35;100012.09;7312572;19;129196;-33
2022/10/31 07:52:04;;;;;;;;;;;;;;;21.80;65.71;100014.97;7313146;19;131341;-34
2022/10/31 07:54:30;;;;;;;;;;;;;;;21.86;65.49;100017.09;7313973;19;129810;-37
2022/10/31 07:56:55;;;;;;;;;;;;;;;21.82;65.89;100018.31;7311832;19;129199;-29
2022/10/31 07:59:20;;;;;;;;;;;;;;;21.82;66.28;100018.31;7313528;19;129561;-33
2022/10/31 08:01:45;;;;;;;;;;;;;;;21.82;66.10;100010.44;7310949;19;130728;-35
2022/10/31 08:04:11;;;;;;;;;;;;;;;21.80;65.50;100011.53;7311252;19;130552;-38
2022/10/31 08:06:36;;;;;;;;;;;;;;;21.83;65.26;100017.34;7311248;19;129556;-30
2022/10/31 08:09:01;;;;;;;;;;;;;;;21.83;65.42;100016.53;7311027;19;130691;-32
2022/10/31 08:11:27;;;;;;;;;;;;;;;21.83;65.96;100022.56;7313481;19;129694;-28
2022/10/31 08:13:52;;;;;;;;;;;;;;;21.82;65.21;100010.44;7314931;19;129312;-31
2022/10/31 08:16:17;;;;;;;;;;;;;;;21.85;65.63;100025.88;7314787;19;129400;-34
2022/10/31 08:18:42;;;;;;;;;;;;;;;21.80;66.04;100012.38;7311525;19;129712;-33
2022/10/31 08:21:07;;;;;;;;;;;;;;;21.82;66.13;100014.84;7314534;19;128967;-31
2022/10/31 08:23:33;;;;;;;;;;;;;;;21.78;65.85;100014.28;7314587;19;129234;-32
2022/10/31 08:25:58;;;;;;;;;;;;;;;21.81;66.18;100021.91;7311952;19;129314;-34
2022/10/31 08:28:23;;;;;;;;;;;;;;;21.82;65.61;100012.22;7307460;19;132319;-37
2022/10/31 08:30:48;;;;;;;;;;;;;;;21.80;65.71;100007.13;7314833;19;130084;-31
2022/10/31 08:33:15;;;;;;;;;;;;;;;21.80;65.86;100007.13;7313554;19;129539;-34
2022/10/31 08:35:40;;;;;;;;;;;;;;;21.84;65.52;100012.94;7312736;19;130422;-41
2022/10/31 08:38:07;;;;;;;;;;;;;;;21.83;65.79;100012.09;7311213;19;131209;-36
2022/10/31 08:40:34;;;;;;;;;;;;;;;21.81;65.43;100013.22;7313140;19;129782;-33
2022/10/31 08:43:01;;;;;;;;;;;;;;;21.78;66.21;100013.47;7313998;19;130306;-38
2022/10/31 08:45:27;;;;;;;;;;;;;;;21.80;66.03;100012.38;7313292;19;129170;-32
2022/10/31 08:47:56;;;;;;;;;;;;;;;21.74;66.00;100012.88;7310456;19;129177;-35
2022/10/31 08:50:21;;;;;;;;;;;;;;;21.75;65.57;100017.13;7308283;19;129988;-33
2022/10/31 08:52:46;;;;;;;;;;;;;;;21.78;66.06;100021.31;7311370;19;129916;-34
2022/10/31 08:55:11;;;;;;;;;;;;;;;21.80;65.52;100014.97;7311706;19;129249;-32
2022/10/31 08:57:36;;;;;;;;;;;;;;;21.81;65.36;100013.22;7312426;19;130777;-33
2022/10/31 09:00:02;;;;;;;;;;;;;;;21.78;66.06;100016.91;7310511;19;130229;-30
2022/10/31 09:02:27;;;;;;;;;;;;;;;21.78;65.76;100013.47;7311122;19;129775;-33
2022/10/31 09:04:52;;;;;;;;;;;;;;;21.78;66.14;100016.91;7311145;19;130206;-37
2022/10/31 09:07:17;;;;;;;;;;;;;;;21.80;65.88;100009.75;7311512;19;129242;-31
2022/10/31 09:09:43;;;;;;;;;;;;;;;21.77;65.66;100010.03;7311847;19;130158;-35
2022/10/31 09:12:08;;;;;;;;;;;;;;;21.80;66.26;100019.38;7308204;19;129883;-32
2022/10/31 09:14:33;;;;;;;;;;;;;;;21.76;66.18;100008.38;7312099;19;129194;-32
2022/10/31 09:16:59;;;;;;;;;;;;;;;21.71;65.69;100002.66;7310779;19;130881;-37
2022/10/31 09:19:24;;;;;;;;;;;;;;;21.82;65.51;100018.31;7306782;19;129040;-31
2022/10/31 09:21:52;;;;;;;;;;;;;;;21.81;65.70;100024.50;7313192;19;129599;-32
2022/10/31 09:24:17;;;;;;;;;;;;;;;21.81;65.49;100019.28;7313206;19;128978;-37
2022/10/31 09:26:42;;;;;;;;;;;;;;;21.82;66.10;100020.09;7311508;19;129175;-33
2022/10/31 09:29:09;;;;;;;;;;;;;;;21.81;65.42;100021.06;7307487;19;128960;-32
2022/10/31 09:31:34;;;;;;;;;;;;;;;21.81;65.37;100024.50;7311095;19;129476;-33
2022/10/31 09:33:59;;;;;;;;;;;;;;;21.78;65.68;100024.75;7311855;19;130309;-42
2022/10/31 09:36:25;;;;;;;;;;;;;;;21.82;65.95;100026.16;7311908;19;129226;-34
2022/10/31 09:38:51;;;;;;;;;;;;;;;21.82;65.49;100020.91;7309322;19;129062;-33
2022/10/31 09:41:21;;;;;;;;;;;;;;;21.85;65.89;100027.66;7312765;19;129805;-31
2022/10/31 09:43:56;;;;;;;;;;;;;;;21.80;65.73;100017.59;7312460;19;129676;-32
2022/10/31 09:46:33;;;;;;;;;;;;;;;21.78;66.28;100021.31;7310461;19;129876;-35
2022/10/31 09:49:04;;;;;;;;;;;;;;;21.75;66.22;100019.75;7305733;19;129572;-34
2022/10/31 09:51:34;;;;;;;;;;;;;;;21.78;66.09;100018.72;7311267;19;129006;-33
2022/10/31 09:54:06;;;;;;;;;;;;;;;21.73;65.58;100000.72;7311881;19;128961;-30
2022/10/31 09:56:32;;;;;;;;;;;;;;;21.81;65.79;100019.28;7312342;19;129671;-31
2022/10/31 09:59:00;;;;;;;;;;;;;;;21.79;65.95;100023.81;7308314;19;129071;-33
2022/10/31 10:01:28;;;;;;;;;;;;;;;21.69;66.05;100009.81;7305884;19;130113;-42
2022/10/31 10:03:56;;;;;;;;;;;;;;;21.77;66.03;100022.25;7308873;19;129166;-35
2022/10/31 10:06:24;;;;;;;;;;;;;;;21.75;66.23;100024.19;7310905;19;129358;-34
2022/10/31 10:08:50;;;;;;;;;;;;;;;21.66;66.05;99999.59;7307143;19;129999;-36
2022/10/31 10:11:23;;;;;;;;;;;;;;;21.79;66.32;100015.13;7309950;19;130118;-31
2022/10/31 10:13:49;;;;;;;;;;;;;;;21.78;65.96;100023.94;7307541;19;130909;-34
2022/10/31 10:16:21;;;;;;;;;;;;;;;21.76;65.96;100016.22;7311327;19;129106;-32
2022/10/31 10:18:49;;;;;;;;;;;;;;;21.75;65.67;100009.28;7303556;19;129666;-37
2022/10/31 10:21:26;;;;;;;;;;;;;;;21.78;65.62;100009.03;7307408;19;129507;-29
2022/10/31 10:23:54;;;;;;;;;;;;;;;21.76;66.19;100011.00;7309435;19;129073;-37
2022/10/31 10:26:21;;;;;;;;;;;;;;;21.80;65.88;100001.91;7305262;19;130752;-35
2022/10/31 10:28:54;;;;;;;;;;;;;;;21.77;66.00;100007.41;7307002;19;129217;-33
2022/10/31 10:31:21;;;;;;;;;;;;;;;21.80;65.58;100001.06;7307761;19;129359;-32
2022/10/31 10:33:56;;;;;;;;;;;;;;;21.75;66.32;99998.81;7306614;19;129138;-29
2022/10/31 10:36:41;;;;;;;;;;;;;;;21.75;65.69;99993.56;7307320;19;130455;-29
2022/10/31 10:39:14;;;;;;;;;;;;;;;21.76;66.19;99995.28;7307379;19;128886;-37
2022/10/31 10:41:42;;;;;;;;;;;;;;;21.76;65.75;99999.66;7307946;19;129444;-36
2022/10/31 10:44:11;;;;;;;;;;;;;;;21.80;65.54;99995.81;7309467;19;129308;-33
2022/10/31 10:49:51;;;;;;;;;;;;;;;21.76;66.34;99995.28;7308089;19;130798;-34
2022/10/31 10:52:19;;;;;;;;;;;;;;;21.77;66.09;99981.22;7307486;19;129648;-35
2022/10/31 10:55:02;;;;;;;;;;;;;;;21.76;66.22;99984.81;7307646;19;129799;-36
2022/10/31 10:57:28;;;;;;;;;;;;;;;21.77;65.55;99989.06;7306456;19;130374;-30
2022/10/31 10:59:54;;;;;;;;;;;;;;;21.70;65.50;99969.59;7307007;19;129427;-34
2022/10/31 11:02:21;;;;;;;;;;;;;;;21.77;66.41;99981.22;7307566;19;130000;-29
2022/10/31 11:04:49;;;;;;;;;;;;;;;21.75;65.88;99977.06;7303245;19;129938;-26
2022/10/31 11:07:15;;;;;;;;;;;;;;;21.76;66.44;99976.09;7308058;19;129696;-31
2022/10/31 11:09:40;;;;;;;;;;;;;;;21.75;65.85;99967.41;7309699;19;129394;-36
2022/10/31 11:12:07;;;;;;;;;;;;;;;21.76;66.32;99968.25;7309636;19;130185;-36
2022/10/31 11:14:35;;;;;;;;;;;;;;;21.77;65.63;99972.53;7310204;19;130237;-33
2022/10/31 11:17:09;;;;;;;;;;;;;;;21.73;65.93;99964.09;7314241;19;129506;-36
2022/10/31 11:19:34;;;;;;;;;;;;;;;21.76;66.03;99965.63;7310351;19;129295;-31
2022/10/31 11:22:07;;;;;;;;;;;;;;;21.75;65.59;99956.13;7313276;19;129881;-33
2022/10/31 11:24:37;;;;;;;;;;;;;;;21.75;66.05;99951.69;7314970;19;129394;-29
2022/10/31 11:27:09;;;;;;;;;;;;;;;21.75;65.80;99954.31;7313960;19;129622;-31
2022/10/31 11:29:36;;;;;;;;;;;;;;;21.75;66.04;99956.13;7313627;19;129173;-30
2022/10/31 11:32:02;;;;;;;;;;;;;;;21.75;66.04;99945.66;7313242;19;130756;-34
2022/10/31 11:34:36;;;;;;;;;;;;;;;21.75;65.72;99951.69;7310548;19;129419;-31
2022/10/31 11:37:09;;;;;;;;;;;;;;;21.74;65.83;99942.22;7312504;19;129170;-28
2022/10/31 11:39:39;;;;;;;;;;;;;;;21.76;66.05;99942.06;7311168;19;129742;-33
2022/10/31 11:42:05;;;;;;;;;;;;;;;21.75;66.02;99938.63;7313737;19;129280;-35
2022/10/31 11:44:32;;;;;;;;;;;;;;;21.74;65.65;99938.75;7314080;19;129466;-33
2022/10/31 11:46:59;;;;;;;;;;;;;;;21.77;65.44;99933.28;7313740;19;129559;-34
2022/10/31 11:49:25;;;;;;;;;;;;;;;21.74;66.38;99934.34;7311265;19;129172;-31
2022/10/31 11:51:52;;;;;;;;;;;;;;;21.75;65.76;99924.72;7312010;19;130244;-35
2022/10/31 11:54:29;;;;;;;;;;;;;;;21.72;65.74;99931.03;7314908;19;129410;-36
2022/10/31 11:56:54;;;;;;;;;;;;;;;21.77;65.60;99931.50;7309604;19;130914;-34
2022/10/31 11:59:25;;;;;;;;;;;;;;;21.77;65.75;99923.66;7315014;19;129875;-38
2022/10/31 12:01:51;;;;;;;;;;;;;;;21.75;65.74;99920.31;7314796;19;129477;-32
2022/10/31 12:04:17;;;;;;;;;;;;;;;21.74;66.11;99917.81;7316279;19;129455;-31
2022/10/31 12:06:45;;;;;;;;;;;;;;;21.65;65.56;99905.53;7310314;19;130355;-36
2022/10/31 12:09:23;;;;;;;;;;;;;;;21.74;66.27;99918.66;7313280;19;129549;-26
2022/10/31 12:11:56;;;;;;;;;;;;;;;21.74;66.28;99913.41;7316107;19;129520;-33
2022/10/31 12:14:40;;;;;;;;;;;;;;;21.72;66.58;99904.88;7312842;19;129435;-29
2022/10/31 12:17:12;;;;;;;;;;;;;;;21.77;65.95;99907.94;7313022;19;130005;-31
2022/10/31 12:19:44;;;;;;;;;;;;;;;21.76;65.76;99905.44;7309936;19;130057;-31
2022/10/31 12:22:15;;;;;;;;;;;;;;;21.75;66.11;99888.91;7313915;19;131466;-35
2022/10/31 12:24:40;;;;;;;;;;;;;;;21.76;65.77;99901.06;7309725;19;130687;-37
2022/10/31 12:27:12;;;;;;;;;;;;;;;21.74;65.83;99892.47;7311374;19;130021;-34
2022/10/31 12:29:56;;;;;;;;;;;;;;;21.77;66.00;99900.09;7312266;19;129266;-30
2022/10/31 12:32:57;;;;;;;;;;;;;;;21.78;65.69;99887.84;7309309;19;129291;-36
2022/10/31 12:35:22;;;;;;;;;;;;;;;21.73;65.58;99885.56;7299794;19;130669;-30
2022/10/31 12:37:59;;;;;;;;;;;;;;;21.76;65.88;99885.38;7301941;19;130859;-36